Time;durP1;ratioP1;P1;durP2;ratioP2;P2;SDS_P1;SDS_P2;PMS_P1;PMS_P2;Temp;Humidity;BMP_temperature;BMP_pressure;BME280_temperature;BME280_humidity;BME280_pressure;Samples;Min_cycle;Max_cycle;Signal;HPM_P1;HPM_P2
2022/01/20 00:00:43;;;;;;;17.90;4.00;;;4.20;99.90;;;;;;5136363;27;20456;-78
2022/01/20 00:03:14;;;;;;;17.23;4.63;;;4.20;99.90;;;;;;5135165;27;20502;-78
2022/01/20 00:08:18;;;;;;;19.67;4.78;;;4.30;99.90;;;;;;5135834;27;20087;-78
2022/01/20 00:27:15;;;;;;;16.95;4.10;;;4.50;99.90;;;;;;5120805;27;20484;-76
2022/01/20 00:37:44;;;;;;;12.05;2.97;;;4.40;99.90;;;;;;5135724;27;20051;-77
2022/01/20 00:40:11;;;;;;;12.15;2.78;;;4.30;99.90;;;;;;5134656;27;20043;-77
2022/01/20 00:42:37;;;;;;;11.77;2.83;;;4.30;99.90;;;;;;5135458;27;20110;-77
2022/01/20 00:45:03;;;;;;;13.93;2.70;;;4.20;99.90;;;;;;5134666;27;20130;-72
2022/01/20 00:47:29;;;;;;;10.32;2.47;;;4.20;99.90;;;;;;5135193;27;20108;-77
2022/01/20 00:49:55;;;;;;;15.48;3.30;;;4.20;99.90;;;;;;5135116;27;20039;-76
2022/01/20 00:52:20;;;;;;;12.68;3.17;;;4.10;99.90;;;;;;5134739;27;20047;-77
2022/01/20 00:54:46;;;;;;;12.88;2.63;;;4.20;99.90;;;;;;5135393;27;20412;-77
2022/01/20 00:57:12;;;;;;;15.75;3.00;;;4.20;99.90;;;;;;5134342;27;20503;-78
2022/01/20 00:59:38;;;;;;;15.60;3.35;;;4.20;99.90;;;;;;5134945;27;20047;-77
2022/01/20 01:02:07;;;;;;;11.27;2.40;;;4.20;99.90;;;;;;5134727;27;20074;-72
2022/01/20 01:04:33;;;;;;;10.32;2.58;;;4.20;99.90;;;;;;5135021;27;20150;-78
2022/01/20 01:09:31;;;;;;;11.60;2.75;;;4.30;99.90;;;;;;5134529;27;20054;-77
2022/01/20 01:12:01;;;;;;;11.40;2.38;;;4.30;99.90;;;;;;5134717;27;20039;-77
2022/01/20 01:14:30;;;;;;;14.00;2.60;;;4.20;99.90;;;;;;5134342;27;20126;-78
2022/01/20 01:24:42;;;;;;;9.75;2.50;;;4.10;99.90;;;;;;5134801;27;20499;-77
2022/01/20 01:27:11;;;;;;;14.82;2.67;;;4.00;99.90;;;;;;5133918;27;20549;-76
2022/01/20 01:32:15;;;;;;;10.70;2.35;;;3.90;99.90;;;;;;5133460;27;20181;-76
2022/01/20 01:34:48;;;;;;;9.00;2.15;;;3.90;99.90;;;;;;5133977;27;20039;-77
2022/01/20 01:39:58;;;;;;;10.98;2.30;;;3.80;99.90;;;;;;5134005;27;20476;-77
2022/01/20 01:42:31;;;;;;;12.23;2.08;;;3.80;99.90;;;;;;5132715;27;20039;-76
2022/01/20 01:45:09;;;;;;;12.48;2.92;;;3.80;99.90;;;;;;5134569;27;20047;-77
2022/01/20 01:47:35;;;;;;;12.73;2.55;;;3.70;99.90;;;;;;5134111;27;20507;-76
2022/01/20 01:50:01;;;;;;;12.05;2.40;;;3.70;99.90;;;;;;5133980;27;20039;-77
2022/01/20 01:52:26;;;;;;;8.93;2.17;;;3.70;99.90;;;;;;5133775;27;20737;-77
2022/01/20 01:54:52;;;;;;;11.38;2.20;;;3.70;99.90;;;;;;5134328;27;20050;-76
2022/01/20 01:57:18;;;;;;;8.90;2.00;;;3.70;99.90;;;;;;5133605;27;20086;-76
2022/01/20 01:59:44;;;;;;;13.50;2.10;;;3.70;99.90;;;;;;5133823;27;20043;-76
2022/01/20 02:02:10;;;;;;;13.93;2.33;;;3.70;99.90;;;;;;5133035;27;20043;-71
2022/01/20 02:04:35;;;;;;;9.10;1.98;;;3.80;99.90;;;;;;5133923;27;20089;-77
2022/01/20 02:18:24;;;;;;;4.90;1.48;;;4.10;99.90;;;;;;5133598;27;20062;-76
2022/01/20 02:20:50;;;;;;;7.85;2.20;;;4.10;99.90;;;;;;5133724;27;20054;-74
2022/01/20 02:23:16;;;;;;;9.68;2.15;;;4.10;99.90;;;;;;5132790;27;20475;-76
2022/01/20 02:25:42;;;;;;;6.63;1.80;;;4.10;99.90;;;;;;5133772;27;20051;-75
2022/01/20 02:28:10;;;;;;;7.43;1.73;;;4.10;99.90;;;;;;5133165;27;20035;-76
2022/01/20 02:30:38;;;;;;;8.70;1.60;;;4.00;99.90;;;;;;5132881;27;20042;-75
2022/01/20 02:33:17;;;;;;;9.73;1.67;;;3.90;99.90;;;;;;5133009;27;20085;-76
2022/01/20 02:35:46;;;;;;;7.18;1.85;;;3.90;99.90;;;;;;5133762;27;20054;-75
2022/01/20 02:38:21;;;;;;;11.68;2.90;;;3.90;99.90;;;;;;5132390;27;20051;-75
2022/01/20 02:46:15;;;;;;;8.55;1.70;;;3.90;99.90;;;;;;5139891;27;20058;-71
2022/01/20 02:48:41;;;;;;;7.80;1.50;;;3.90;99.90;;;;;;5139892;27;20047;-75
2022/01/20 02:51:07;;;;;;;8.73;1.55;;;3.90;99.90;;;;;;5140455;27;20488;-75
2022/01/20 02:53:32;;;;;;;9.77;1.50;;;3.90;99.90;;;;;;5138961;27;20047;-75
2022/01/20 02:55:58;;;;;;;9.07;1.90;;;3.90;99.90;;;;;;5140278;27;20043;-74
2022/01/20 02:58:24;;;;;;;8.15;1.52;;;3.90;99.90;;;;;;5139483;27;20035;-74
2022/01/20 03:00:50;;;;;;;6.88;1.73;;;4.00;99.90;;;;;;5140301;27;20496;-74
2022/01/20 03:03:16;;;;;;;8.85;1.90;;;4.00;99.90;;;;;;5139447;27;20043;-71
2022/01/20 03:05:42;;;;;;;9.43;1.65;;;4.00;99.90;;;;;;5140028;27;20126;-74
2022/01/20 03:08:08;;;;;;;8.57;1.98;;;4.00;99.90;;;;;;5140007;27;20074;-74
2022/01/20 03:10:33;;;;;;;5.78;1.35;;;4.00;99.90;;;;;;5139277;27;20043;-74
2022/01/20 03:12:59;;;;;;;5.25;1.20;;;4.00;99.90;;;;;;5139888;27;20047;-72
2022/01/20 03:15:25;;;;;;;5.03;1.45;;;3.90;99.90;;;;;;5139031;27;20498;-73
2022/01/20 03:17:51;;;;;;;5.65;1.45;;;4.00;99.90;;;;;;5138764;27;20466;-74
2022/01/20 03:20:16;;;;;;;4.18;1.00;;;4.00;99.90;;;;;;5139466;27;20047;-73
2022/01/20 03:22:43;;;;;;;5.55;1.15;;;4.00;99.90;;;;;;5139513;27;20133;-73
2022/01/20 03:25:09;;;;;;;6.55;1.63;;;3.90;99.90;;;;;;5139939;27;20078;-74
2022/01/20 03:27:35;;;;;;;10.23;1.80;;;3.90;99.90;;;;;;5139131;27;20505;-73
2022/01/20 03:30:00;;;;;;;7.55;1.63;;;3.90;99.90;;;;;;5139449;27;20039;-73
2022/01/20 03:32:26;;;;;;;7.97;2.03;;;3.70;99.90;;;;;;5139646;27;20043;-73
2022/01/20 03:34:52;;;;;;;6.70;1.70;;;3.70;99.90;;;;;;5139381;27;20043;-73
2022/01/20 03:37:17;;;;;;;10.55;2.65;;;3.60;99.90;;;;;;5139869;27;20046;-73
2022/01/20 03:39:43;;;;;;;9.75;2.08;;;3.50;99.90;;;;;;5138882;27;20066;-73
2022/01/20 03:42:09;;;;;;;11.30;2.60;;;3.50;99.90;;;;;;5138876;27;20049;-73
2022/01/20 03:44:35;;;;;;;9.30;2.08;;;3.50;99.90;;;;;;5138634;27;20045;-73
2022/01/20 03:47:01;;;;;;;12.63;2.60;;;3.50;99.90;;;;;;5139315;27;20117;-73
2022/01/20 03:49:35;;;;;;;10.05;2.60;;;3.50;99.90;;;;;;5138979;27;20043;-73
2022/01/20 03:52:01;;;;;;;17.27;3.85;;;3.50;99.90;;;;;;5139903;27;20054;-72
2022/01/20 03:54:27;;;;;;;10.68;3.50;;;3.50;99.90;;;;;;5138868;27;20042;-72
2022/01/20 03:56:52;;;;;;;11.10;3.03;;;3.50;99.90;;;;;;5135907;27;20480;-73
2022/01/20 03:59:18;;;;;;;14.10;3.83;;;3.50;99.90;;;;;;5136365;27;20080;-73
2022/01/20 04:01:45;;;;;;;13.45;3.33;;;3.60;99.90;;;;;;5135466;27;20050;-73
2022/01/20 04:04:11;;;;;;;18.20;3.72;;;3.50;99.90;;;;;;5136243;27;20051;-73
2022/01/20 04:06:36;;;;;;;19.08;4.05;;;3.60;99.90;;;;;;5135850;27;20386;-73
2022/01/20 04:09:03;;;;;;;16.02;3.58;;;3.60;99.90;;;;;;5135722;27;20051;-73
2022/01/20 04:11:29;;;;;;;13.68;3.88;;;3.60;99.90;;;;;;5135291;27;20039;-72
2022/01/20 04:13:56;;;;;;;14.93;2.90;;;3.50;99.90;;;;;;5136019;27;20043;-73
2022/01/20 04:16:37;;;;;;;16.25;3.58;;;3.50;99.90;;;;;;5135982;27;20095;-72
2022/01/20 04:19:10;;;;;;;12.63;3.38;;;3.50;99.90;;;;;;5135961;27;20067;-73
2022/01/20 04:21:38;;;;;;;17.23;4.20;;;3.50;99.90;;;;;;5134530;27;20579;-72
2022/01/20 04:24:05;;;;;;;17.30;3.90;;;3.60;99.90;;;;;;5135160;27;20472;-73
2022/01/20 04:26:35;;;;;;;16.73;4.15;;;3.50;99.90;;;;;;5135149;27;20130;-72
2022/01/20 04:29:01;;;;;;;14.68;4.20;;;3.50;99.90;;;;;;5135254;27;20082;-72
2022/01/20 04:31:30;;;;;;;15.00;3.80;;;3.40;99.90;;;;;;5135622;27;20061;-71
2022/01/20 04:33:56;;;;;;;14.85;3.40;;;3.40;99.90;;;;;;5135485;27;20043;-73
2022/01/20 04:36:24;;;;;;;11.55;3.40;;;3.50;99.90;;;;;;5135795;27;20043;-73
2022/01/20 04:38:49;;;;;;;18.83;4.35;;;3.40;99.90;;;;;;5134474;27;20439;-73
2022/01/20 04:41:15;;;;;;;16.33;3.70;;;3.50;99.90;;;;;;5135367;27;20035;-73
2022/01/20 04:43:41;;;;;;;16.77;4.32;;;3.50;99.90;;;;;;5135117;27;20084;-73
2022/01/20 04:46:14;;;;;;;14.57;3.85;;;3.50;99.90;;;;;;5135141;27;20046;-73
2022/01/20 04:49:08;;;;;;;13.15;3.30;;;3.50;99.90;;;;;;5135150;27;20055;-73
2022/01/20 04:57:21;;;;;;;15.57;4.10;;;3.50;99.90;;;;;;5135136;27;20059;-73
2022/01/20 04:59:49;;;;;;;13.75;3.25;;;3.50;99.90;;;;;;5113354;28;20048;-74
2022/01/20 05:02:16;;;;;;;16.88;3.92;;;3.40;99.90;;;;;;5116938;27;20047;-73
2022/01/20 05:04:42;;;;;;;13.02;3.45;;;3.40;99.90;;;;;;5134592;27;20044;-73
2022/01/20 05:07:09;;;;;;;13.52;3.33;;;3.40;99.90;;;;;;5134851;27;20046;-73
2022/01/20 05:09:35;;;;;;;14.90;4.07;;;3.30;99.90;;;;;;5134037;27;20043;-73
2022/01/20 05:12:11;;;;;;;12.13;3.25;;;3.30;99.90;;;;;;5134760;27;20049;-74
2022/01/20 05:14:37;;;;;;;10.40;3.08;;;3.20;99.90;;;;;;5132054;27;20043;-76
2022/01/20 05:17:03;;;;;;;10.63;3.08;;;3.10;99.90;;;;;;5134747;27;20054;-74
2022/01/20 05:19:30;;;;;;;13.05;3.25;;;3.00;99.90;;;;;;5135004;27;20043;-75
2022/01/20 05:21:57;;;;;;;12.68;2.97;;;3.00;99.90;;;;;;5133276;27;20035;-74
2022/01/20 05:24:23;;;;;;;12.38;3.45;;;2.90;99.90;;;;;;5134506;27;20046;-75
2022/01/20 05:26:50;;;;;;;14.27;3.33;;;2.90;99.90;;;;;;5134318;27;20470;-74
2022/01/20 05:29:20;;;;;;;12.15;3.40;;;2.80;99.90;;;;;;5134743;27;20041;-74
2022/01/20 05:31:46;;;;;;;12.93;3.28;;;2.80;99.90;;;;;;5134180;27;20118;-74
2022/01/20 05:34:12;;;;;;;8.70;2.78;;;2.70;99.90;;;;;;5134623;27;20468;-74
2022/01/20 05:36:38;;;;;;;13.80;3.58;;;2.60;99.90;;;;;;5134017;27;20126;-74
2022/01/20 05:39:05;;;;;;;14.02;3.42;;;2.50;99.90;;;;;;5134609;27;20107;-75
2022/01/20 05:41:31;;;;;;;14.93;3.55;;;2.50;99.90;;;;;;5132876;27;20083;-75
2022/01/20 05:43:58;;;;;;;11.15;2.80;;;2.40;99.90;;;;;;5133893;27;20130;-74
2022/01/20 05:46:34;;;;;;;14.02;4.00;;;2.30;99.90;;;;;;5134619;27;20085;-75
2022/01/20 05:49:08;;;;;;;11.93;3.30;;;2.30;99.90;;;;;;5134162;27;20062;-74
2022/01/20 05:51:38;;;;;;;11.93;3.08;;;2.30;99.90;;;;;;5134255;27;20493;-75
2022/01/20 05:54:06;;;;;;;14.07;3.20;;;2.40;99.90;;;;;;5134568;27;20191;-75
2022/01/20 05:56:31;;;;;;;13.95;3.60;;;2.50;99.90;;;;;;5133965;27;20043;-75
2022/01/20 05:58:59;;;;;;;12.13;3.38;;;2.50;99.90;;;;;;5133565;27;20218;-74
2022/01/20 06:01:25;;;;;;;12.45;3.53;;;2.60;99.90;;;;;;5134067;27;20043;-74
2022/01/20 06:03:51;;;;;;;14.07;3.60;;;2.70;99.90;;;;;;5115696;27;20492;-75
2022/01/20 06:06:17;;;;;;;12.18;2.83;;;2.80;99.90;;;;;;5133843;27;20043;-75
2022/01/20 06:08:44;;;;;;;17.45;3.80;;;2.90;99.90;;;;;;5133047;27;20051;-73
2022/01/20 06:11:10;;;;;;;11.15;2.67;;;2.90;99.90;;;;;;5133939;27;20162;-74
2022/01/20 06:13:36;;;;;;;14.55;3.42;;;2.90;99.90;;;;;;5134319;27;20092;-75
2022/01/20 06:16:02;;;;;;;11.75;2.85;;;3.00;99.90;;;;;;5133343;27;20047;-74
2022/01/20 06:18:28;;;;;;;9.18;2.45;;;3.00;99.90;;;;;;5133436;27;20069;-76
2022/01/20 06:20:54;;;;;;;8.35;2.22;;;2.90;99.90;;;;;;5132805;27;20566;-76
2022/01/20 06:23:23;;;;;;;9.07;2.28;;;2.90;99.90;;;;;;5133771;27;20050;-76
2022/01/20 06:25:49;;;;;;;7.72;2.58;;;2.90;99.90;;;;;;5133198;27;20043;-76
2022/01/20 06:28:16;;;;;;;10.82;2.45;;;2.80;99.90;;;;;;5133846;27;20047;-75
2022/01/20 06:30:42;;;;;;;8.30;2.00;;;2.80;99.90;;;;;;5132169;27;20176;-72
2022/01/20 06:33:08;;;;;;;9.32;2.70;;;2.70;99.90;;;;;;5132446;27;20080;-75
2022/01/20 06:35:34;;;;;;;8.65;2.83;;;2.70;99.90;;;;;;5133445;27;20411;-75
2022/01/20 06:38:00;;;;;;;7.80;2.38;;;2.60;99.90;;;;;;5132452;27;20039;-75
2022/01/20 06:40:26;;;;;;;7.80;2.40;;;2.60;99.90;;;;;;5133630;27;20129;-75
2022/01/20 06:42:53;;;;;;;7.55;2.25;;;2.50;99.90;;;;;;5133033;28;20369;-75
2022/01/20 06:45:20;;;;;;;13.52;3.03;;;2.50;99.90;;;;;;5132612;28;20090;-75
2022/01/20 06:47:46;;;;;;;10.85;2.50;;;2.50;99.90;;;;;;5132293;27;20051;-75
2022/01/20 06:50:13;;;;;;;9.80;2.72;;;2.50;99.90;;;;;;5133506;27;20142;-76
2022/01/20 06:52:39;;;;;;;12.52;2.83;;;2.40;99.90;;;;;;5132286;28;20049;-76
2022/01/20 06:55:07;;;;;;;11.50;2.63;;;2.40;99.90;;;;;;5131861;28;20054;-76
2022/01/20 06:57:34;;;;;;;8.70;2.67;;;2.40;99.90;;;;;;5133390;27;20055;-76
2022/01/20 07:00:01;;;;;;;8.43;2.30;;;2.40;99.90;;;;;;5131255;28;20039;-76
2022/01/20 07:02:26;;;;;;;11.30;2.40;;;2.40;99.90;;;;;;5133055;27;20122;-75
2022/01/20 07:04:52;;;;;;;8.02;2.50;;;2.40;99.90;;;;;;5132883;27;20133;-77
2022/01/20 07:07:19;;;;;;;10.43;2.83;;;2.40;99.90;;;;;;5133270;28;20050;-76
2022/01/20 07:09:45;;;;;;;11.02;2.80;;;2.30;99.90;;;;;;5133302;27;20066;-73
2022/01/20 07:12:11;;;;;;;8.90;2.30;;;2.30;99.90;;;;;;5132798;28;20039;-76
2022/01/20 07:14:38;;;;;;;11.05;2.58;;;2.20;99.90;;;;;;5133263;27;20368;-77
2022/01/20 07:17:05;;;;;;;8.27;2.75;;;2.20;99.90;;;;;;5132737;27;20046;-75
2022/01/20 07:19:31;;;;;;;12.45;3.33;;;2.10;99.90;;;;;;5133169;27;20058;-76
2022/01/20 07:21:58;;;;;;;10.27;2.60;;;2.10;99.90;;;;;;5132771;27;20118;-76
2022/01/20 07:24:24;;;;;;;9.50;2.78;;;2.10;99.90;;;;;;5131675;28;20043;-76
2022/01/20 07:26:50;;;;;;;9.98;3.13;;;2.10;99.90;;;;;;5132590;27;20079;-75
2022/01/20 07:29:16;;;;;;;11.85;2.75;;;2.00;99.90;;;;;;5132825;28;20568;-77
2022/01/20 07:31:42;;;;;;;8.95;2.50;;;2.00;99.90;;;;;;5134841;27;20049;-76
2022/01/20 07:34:07;;;;;;;12.85;3.05;;;2.00;99.90;;;;;;5136332;27;20088;-76
2022/01/20 07:36:33;;;;;;;11.05;2.88;;;2.00;99.90;;;;;;5135715;27;20055;-76
2022/01/20 07:38:59;;;;;;;14.73;2.92;;;2.00;99.90;;;;;;5136252;27;20047;-76
2022/01/20 07:41:26;;;;;;;9.13;3.05;;;2.00;99.90;;;;;;5136766;27;20090;-77
2022/01/20 07:43:52;;;;;;;11.80;3.08;;;1.90;99.90;;;;;;5135764;27;20047;-75
2022/01/20 07:46:18;;;;;;;10.13;2.92;;;1.90;99.90;;;;;;5136770;27;20514;-77
2022/01/20 07:48:43;;;;;;;10.52;2.75;;;1.90;99.90;;;;;;5136668;27;20107;-77
2022/01/20 07:51:09;;;;;;;12.65;3.40;;;1.80;99.90;;;;;;5136168;27;20093;-76
2022/01/20 07:53:36;;;;;;;10.75;3.05;;;1.90;99.90;;;;;;5136440;27;20035;-76
2022/01/20 07:56:04;;;;;;;9.38;2.67;;;1.90;99.90;;;;;;5136015;27;20051;-77
2022/01/20 07:58:29;;;;;;;12.63;2.83;;;1.80;99.90;;;;;;5136740;27;20054;-77
2022/01/20 08:00:55;;;;;;;11.93;2.70;;;1.80;99.90;;;;;;5136148;27;20031;-76
2022/01/20 08:03:21;;;;;;;12.82;3.38;;;1.90;99.90;;;;;;5135170;27;20125;-77
2022/01/20 08:05:47;;;;;;;10.93;3.15;;;1.90;99.90;;;;;;5136418;27;20087;-77
2022/01/20 08:08:12;;;;;;;12.25;2.72;;;2.00;99.90;;;;;;5135883;27;20195;-76
2022/01/20 08:10:38;;;;;;;11.40;3.10;;;2.10;99.90;;;;;;5136310;27;20100;-77
2022/01/20 08:13:04;;;;;;;9.40;2.70;;;2.20;99.90;;;;;;5135620;27;20095;-76
2022/01/20 08:15:30;;;;;;;8.65;3.47;;;2.30;99.90;;;;;;5134634;27;20078;-76
2022/01/20 08:17:56;;;;;;;9.90;2.63;;;2.30;99.90;;;;;;5135560;27;20039;-75
2022/01/20 08:20:22;;;;;;;12.82;2.78;;;2.30;99.90;;;;;;5136140;27;20188;-76
2022/01/20 08:22:48;;;;;;;8.95;2.65;;;2.20;99.90;;;;;;5135738;27;20440;-76
2022/01/20 08:25:17;;;;;;;9.10;3.15;;;2.10;99.90;;;;;;5134044;27;20074;-73
2022/01/20 08:27:44;;;;;;;12.02;2.92;;;2.10;99.90;;;;;;5135120;27;20051;-76
2022/01/20 08:30:13;;;;;;;9.77;3.25;;;2.10;99.90;;;;;;5135210;27;20043;-76
2022/01/20 08:32:39;;;;;;;13.13;3.38;;;2.10;99.90;;;;;;5135734;27;20054;-77
2022/01/20 08:35:08;;;;;;;12.90;3.53;;;2.10;99.90;;;;;;5134739;27;20035;-76
2022/01/20 08:37:40;;;;;;;11.80;2.95;;;2.10;99.90;;;;;;5135622;27;20046;-76
2022/01/20 08:40:13;;;;;;;11.60;3.03;;;2.10;99.90;;;;;;5135033;27;20517;-77
2022/01/20 08:42:41;;;;;;;15.80;4.22;;;2.10;99.90;;;;;;5135159;27;20051;-78
2022/01/20 08:45:08;;;;;;;15.57;3.45;;;2.20;99.90;;;;;;5134744;27;20385;-76
2022/01/20 08:47:34;;;;;;;16.45;4.03;;;2.30;99.90;;;;;;5135181;27;20043;-81
2022/01/20 08:50:03;;;;;;;13.52;3.58;;;2.30;99.90;;;;;;5134752;27;20047;-80
2022/01/20 08:52:29;;;;;;;15.38;3.35;;;2.40;99.90;;;;;;5135489;27;20055;-81
2022/01/20 08:54:58;;;;;;;13.00;3.60;;;2.50;99.90;;;;;;5131353;27;20051;-74
2022/01/20 08:57:27;;;;;;;16.52;3.45;;;2.60;99.90;;;;;;5127311;27;20488;-80
2022/01/20 08:59:53;;;;;;;12.90;3.47;;;2.60;99.90;;;;;;5130858;27;20047;-81
2022/01/20 09:02:19;;;;;;;14.63;3.95;;;2.70;99.90;;;;;;5131633;27;20034;-79
2022/01/20 09:04:45;;;;;;;14.98;3.72;;;2.70;99.90;;;;;;5134359;27;20054;-81
2022/01/20 09:07:11;;;;;;;11.95;3.17;;;2.70;99.90;;;;;;5134178;27;20043;-80
2022/01/20 09:09:46;;;;;;;13.85;3.67;;;2.70;99.90;;;;;;5127680;27;20047;-80
2022/01/20 09:17:43;;;;;;;13.70;3.67;;;2.70;99.90;;;;;;5132162;27;20088;-78
2022/01/20 09:20:10;;;;;;;12.82;3.42;;;2.70;99.90;;;;;;5130888;27;20071;-81
2022/01/20 09:22:37;;;;;;;12.77;3.40;;;2.70;99.90;;;;;;5131254;27;20070;-81
2022/01/20 09:25:05;;;;;;;12.80;3.15;;;2.80;99.90;;;;;;5127526;27;20469;-77
2022/01/20 09:27:30;;;;;;;12.73;3.85;;;2.80;99.90;;;;;;5131299;27;20047;-81
2022/01/20 09:29:56;;;;;;;14.15;3.40;;;2.90;99.90;;;;;;5128163;27;20080;-80
2022/01/20 09:32:25;;;;;;;11.93;3.30;;;3.00;99.90;;;;;;5130403;27;20087;-79
2022/01/20 09:34:51;;;;;;;13.93;3.78;;;3.20;99.90;;;;;;5130462;27;20464;-79
2022/01/20 09:37:17;;;;;;;10.57;3.03;;;3.30;99.90;;;;;;5131473;27;20051;-79
2022/01/20 09:39:43;;;;;;;12.20;3.13;;;3.30;99.90;;;;;;5132260;27;20043;-78
2022/01/20 09:42:09;;;;;;;11.95;2.80;;;3.30;99.90;;;;;;5130940;27;20035;-74
2022/01/20 09:44:35;;;;;;;9.48;2.50;;;3.20;99.90;;;;;;5131983;27;20144;-79
2022/01/20 09:47:01;;;;;;;12.63;2.72;;;3.10;99.90;;;;;;5127023;27;20392;-79
2022/01/20 09:49:26;;;;;;;11.93;2.88;;;2.90;99.90;;;;;;5131814;27;20051;-76
2022/01/20 09:51:52;;;;;;;10.25;2.63;;;2.90;99.90;;;;;;5131068;27;20548;-79
2022/01/20 09:54:19;;;;;;;9.13;2.95;;;2.80;99.90;;;;;;5124135;27;20042;-78
2022/01/20 09:56:45;;;;;;;11.73;2.80;;;2.70;99.90;;;;;;5111206;28;20079;-78
2022/01/20 09:59:12;;;;;;;10.35;2.95;;;2.70;99.90;;;;;;5110312;28;20475;-78
2022/01/20 10:01:47;;;;;;;11.32;3.10;;;2.70;99.90;;;;;;5110298;28;20549;-78
2022/01/20 10:04:27;;;;;;;8.70;2.65;;;2.80;99.90;;;;;;5114586;27;20484;-75
2022/01/20 10:06:55;;;;;;;10.85;2.70;;;3.00;99.90;;;;;;5122944;27;20138;-76
2022/01/20 10:09:34;;;;;;;12.32;2.40;;;3.10;99.90;;;;;;5130838;27;20034;-78
2022/01/20 10:12:00;;;;;;;9.75;2.65;;;3.10;99.90;;;;;;5131621;27;20047;-79
2022/01/20 10:14:26;;;;;;;9.20;2.30;;;3.20;99.90;;;;;;5129396;27;20099;-79
2022/01/20 10:16:52;;;;;;;6.97;2.10;;;3.30;99.90;;;;;;5131676;27;20043;-76
2022/01/20 10:19:29;;;;;;;6.75;1.95;;;3.40;99.90;;;;;;5129514;27;20456;-76
2022/01/20 10:21:55;;;;;;;4.53;2.08;;;3.30;99.90;;;;;;5129992;27;20534;-78
2022/01/20 10:24:21;;;;;;;9.18;2.03;;;3.20;99.90;;;;;;5127939;27;20051;-75
2022/01/20 10:26:50;;;;;;;11.00;2.28;;;3.20;99.90;;;;;;5110196;28;20480;-75
2022/01/20 10:29:16;;;;;;;8.50;2.42;;;3.10;99.90;;;;;;5109930;28;20450;-78
2022/01/20 10:31:51;;;;;;;8.45;2.22;;;3.10;99.90;;;;;;5110831;28;20044;-78
2022/01/20 10:34:35;;;;;;;6.90;1.85;;;3.10;99.90;;;;;;5110261;28;20043;-79
2022/01/20 10:37:06;;;;;;;6.57;1.92;;;3.10;99.90;;;;;;5126646;27;20047;-77
2022/01/20 10:39:38;;;;;;;7.07;1.98;;;3.00;99.90;;;;;;5130901;27;20047;-78
2022/01/20 10:42:06;;;;;;;7.63;1.73;;;3.00;99.90;;;;;;5129809;27;20050;-73
2022/01/20 10:44:43;;;;;;;5.55;1.80;;;3.00;99.90;;;;;;5130516;27;20403;-77
2022/01/20 10:47:20;;;;;;;6.97;1.70;;;3.10;99.90;;;;;;5116305;27;20040;-73
2022/01/20 10:49:47;;;;;;;7.07;1.95;;;3.10;99.90;;;;;;5110303;28;20108;-79
2022/01/20 10:52:18;;;;;;;9.95;2.28;;;3.10;99.90;;;;;;5109578;28;20446;-76
2022/01/20 10:54:53;;;;;;;9.98;2.03;;;3.10;99.90;;;;;;5110442;28;20058;-79
2022/01/20 10:57:30;;;;;;;8.20;2.30;;;3.10;99.90;;;;;;5109037;28;20047;-75
2022/01/20 11:00:23;;;;;;;6.93;2.28;;;3.10;99.90;;;;;;5109688;28;20520;-74
2022/01/20 11:02:50;;;;;;;10.90;2.33;;;3.20;99.90;;;;;;5125596;28;20059;-78
2022/01/20 11:05:17;;;;;;;7.53;2.58;;;3.10;99.90;;;;;;5128787;27;20043;-74
2022/01/20 11:07:44;;;;;;;5.97;2.15;;;3.00;99.90;;;;;;5133948;27;20155;-78
2022/01/20 11:10:11;;;;;;;7.97;1.55;;;2.90;99.90;;;;;;5134731;27;20039;-78
2022/01/20 11:12:38;;;;;;;7.50;1.75;;;2.80;99.90;;;;;;5131480;27;20390;-73
2022/01/20 11:15:10;;;;;;;5.28;1.75;;;2.80;99.90;;;;;;5134719;27;20050;-78
2022/01/20 11:17:40;;;;;;;9.10;1.70;;;2.80;99.90;;;;;;5134623;27;20050;-77
2022/01/20 11:20:06;;;;;;;7.47;1.95;;;2.80;99.90;;;;;;5134110;27;20043;-78
2022/01/20 11:22:32;;;;;;;9.40;2.40;;;2.80;99.90;;;;;;5134401;27;20648;-79
2022/01/20 11:25:07;;;;;;;8.00;1.65;;;2.90;99.90;;;;;;5127347;27;20051;-77
2022/01/20 11:27:40;;;;;;;5.75;2.00;;;2.90;99.90;;;;;;5151216;27;20699;-79
2022/01/20 11:30:21;;;;;;;8.05;2.30;;;3.10;99.90;;;;;;5113927;28;20544;-79
2022/01/20 11:33:05;;;;;;;7.53;2.40;;;3.20;99.90;;;;;;5117290;27;20520;-80
2022/01/20 11:35:42;;;;;;;7.97;1.90;;;3.30;99.90;;;;;;5113544;28;20452;-78
2022/01/20 11:38:09;;;;;;;9.60;2.20;;;3.40;99.90;;;;;;5113650;28;20118;-76
2022/01/20 11:40:47;;;;;;;6.22;2.22;;;3.40;99.90;;;;;;5120268;27;20043;-79
2022/01/20 11:43:13;;;;;;;8.43;2.40;;;3.50;99.90;;;;;;5122912;27;20072;-78
2022/01/20 11:45:47;;;;;;;7.63;1.88;;;3.60;99.90;;;;;;5133317;27;20207;-79
2022/01/20 11:48:16;;;;;;;7.85;2.33;;;3.70;99.90;;;;;;5132880;27;20059;-77
2022/01/20 11:50:43;;;;;;;8.07;2.03;;;3.80;99.90;;;;;;5132523;27;20043;-78
2022/01/20 11:53:14;;;;;;;10.00;2.55;;;3.90;99.90;;;;;;5133198;27;20039;-79
2022/01/20 11:55:46;;;;;;;10.63;2.70;;;3.90;99.90;;;;;;5133365;27;20108;-76
2022/01/20 11:58:14;;;;;;;9.45;2.60;;;4.00;99.90;;;;;;5133340;27;20086;-79
2022/01/20 12:00:41;;;;;;;10.07;2.83;;;4.20;99.90;;;;;;5134734;27;20432;-80
2022/01/20 12:03:15;;;;;;;9.32;2.92;;;4.40;99.90;;;;;;5140487;27;20043;-79
2022/01/20 12:05:42;;;;;;;9.00;2.70;;;4.40;99.90;;;;;;5135158;27;20047;-81
2022/01/20 12:08:10;;;;;;;7.60;2.53;;;4.30;99.90;;;;;;5129967;27;20055;-79
2022/01/20 12:10:38;;;;;;;14.43;2.97;;;4.40;99.90;;;;;;5133538;27;20387;-79
2022/01/20 12:13:12;;;;;;;10.85;2.95;;;4.30;99.90;;;;;;5135536;27;20134;-80
2022/01/20 12:15:52;;;;;;;13.38;3.08;;;4.10;99.90;;;;;;5135197;27;20035;-78
2022/01/20 12:18:18;;;;;;;10.77;2.28;;;3.80;99.90;;;;;;5134856;27;20039;-78
2022/01/20 12:20:45;;;;;;;11.35;2.50;;;3.60;99.90;;;;;;5135334;27;20035;-78
2022/01/20 12:23:11;;;;;;;9.80;2.75;;;3.50;99.90;;;;;;5135680;27;20035;-80
2022/01/20 12:25:37;;;;;;;12.43;2.75;;;3.40;99.90;;;;;;5132448;27;20420;-78
2022/01/20 12:28:12;;;;;;;11.15;2.97;;;3.50;99.90;;;;;;5133506;27;20047;-80
2022/01/20 12:30:44;;;;;;;8.75;2.35;;;3.60;99.90;;;;;;5135003;27;20074;-79
2022/01/20 12:33:15;;;;;;;11.55;3.28;;;3.80;99.90;;;;;;5131885;27;20068;-78
2022/01/20 12:35:46;;;;;;;10.35;2.70;;;3.90;99.90;;;;;;5134986;27;20083;-77
2022/01/20 12:38:16;;;;;;;9.30;2.72;;;3.80;99.90;;;;;;5131602;27;20090;-79
2022/01/20 12:40:42;;;;;;;11.40;2.88;;;3.70;99.90;;;;;;5129109;27;20067;-79
2022/01/20 12:43:08;;;;;;;9.80;2.28;;;3.90;99.90;;;;;;5134891;27;20496;-79
2022/01/20 12:48:18;;;;;;;10.25;2.70;;;4.00;99.90;;;;;;5134690;27;20051;-79
2022/01/20 12:51:13;;;;;;;9.55;2.78;;;4.10;99.90;;;;;;5134369;27;20119;-81
2022/01/20 12:53:41;;;;;;;13.77;2.85;;;4.10;99.90;;;;;;5116512;27;20134;-79
2022/01/20 12:56:10;;;;;;;10.15;2.28;;;4.20;99.90;;;;;;5135110;27;20082;-79
2022/01/20 12:58:46;;;;;;;9.00;2.42;;;4.30;99.90;;;;;;5134314;27;20119;-79
2022/01/20 13:01:12;;;;;;;10.02;2.88;;;4.30;99.90;;;;;;5134672;27;20433;-79
2022/01/20 13:03:41;;;;;;;9.68;2.63;;;4.40;99.90;;;;;;5133562;27;20047;-80
2022/01/20 13:06:11;;;;;;;8.45;2.35;;;4.40;99.90;;;;;;5133582;27;20047;-79
2022/01/20 13:08:41;;;;;;;11.68;3.15;;;4.30;99.90;;;;;;5131688;27;20472;-78
2022/01/20 13:11:12;;;;;;;14.10;2.95;;;4.30;99.90;;;;;;5133121;27;20531;-79
2022/01/20 13:13:38;;;;;;;8.77;2.45;;;4.30;99.90;;;;;;5134477;27;20043;-79
2022/01/20 13:16:13;;;;;;;8.35;2.45;;;4.30;99.90;;;;;;5134234;27;20053;-78
2022/01/20 13:18:39;;;;;;;10.07;2.53;;;4.20;99.90;;;;;;5134542;27;20035;-80
2022/01/20 13:21:08;;;;;;;12.95;3.58;;;4.30;99.90;;;;;;5134376;27;20092;-78
2022/01/20 13:23:55;;;;;;;12.50;2.85;;;4.40;99.90;;;;;;5133918;27;20055;-78
2022/01/20 13:26:21;;;;;;;11.25;2.63;;;4.40;99.90;;;;;;5135063;27;20050;-78
2022/01/20 13:29:05;;;;;;;10.48;2.53;;;4.40;99.90;;;;;;5133650;27;20827;-78
2022/01/20 13:31:32;;;;;;;11.82;2.60;;;4.50;99.90;;;;;;5134006;27;20045;-77
2022/01/20 13:34:09;;;;;;;13.05;3.05;;;4.40;99.90;;;;;;5134208;27;20146;-78
2022/01/20 13:36:39;;;;;;;10.80;2.95;;;4.40;99.90;;;;;;5134138;27;20121;-77
2022/01/20 13:39:06;;;;;;;11.75;2.90;;;4.50;99.90;;;;;;5133860;27;20035;-78
2022/01/20 13:41:31;;;;;;;10.50;3.15;;;4.50;99.90;;;;;;5133948;27;20047;-74
2022/01/20 13:46:47;;;;;;;10.65;2.58;;;4.50;99.90;;;;;;5134039;27;20161;-79
2022/01/20 13:49:23;;;;;;;11.63;2.97;;;4.50;99.90;;;;;;5134645;27;20051;-79
2022/01/20 13:51:59;;;;;;;11.77;3.35;;;4.50;99.90;;;;;;5133776;27;20462;-77
2022/01/20 13:54:39;;;;;;;10.85;3.08;;;4.50;99.90;;;;;;5127144;27;20039;-77
2022/01/20 13:57:05;;;;;;;9.05;2.63;;;4.30;99.90;;;;;;5134532;27;20043;-77
2022/01/20 13:59:30;;;;;;;8.07;2.20;;;4.40;99.90;;;;;;5133958;27;20039;-72
2022/01/20 14:01:57;;;;;;;10.10;2.55;;;4.30;99.90;;;;;;5134121;27;20079;-78
2022/01/20 14:04:22;;;;;;;6.65;2.10;;;4.30;99.90;;;;;;5133988;27;20122;-78
2022/01/20 14:06:48;;;;;;;7.63;2.25;;;4.30;99.90;;;;;;5132859;27;20556;-78
2022/01/20 14:09:14;;;;;;;7.60;2.33;;;4.40;99.90;;;;;;5133156;27;20134;-78
2022/01/20 14:11:41;;;;;;;8.88;2.10;;;4.40;99.90;;;;;;5121018;27;20048;-78